sensor_id;sensor_type;location;lat;lon;timestamp;P1;durP1;ratioP1;P2;durP2;ratioP2
11046;SDS011;5576;50.008;10.596;2023-04-03T00:01:07;3.03;;;2.13;;
11046;SDS011;5576;50.008;10.596;2023-04-03T00:03:33;2.22;;;2.03;;
11046;SDS011;5576;50.008;10.596;2023-04-03T00:05:59;3.27;;;2.00;;
11046;SDS011;5576;50.008;10.596;2023-04-03T00:08:25;3.40;;;1.80;;
11046;SDS011;5576;50.008;10.596;2023-04-03T00:10:51;2.40;;;1.83;;
11046;SDS011;5576;50.008;10.596;2023-04-03T00:13:17;2.73;;;1.90;;
11046;SDS011;5576;50.008;10.596;2023-04-03T00:15:43;2.45;;;2.00;;
11046;SDS011;5576;50.008;10.596;2023-04-03T00:18:09;3.08;;;1.95;;
11046;SDS011;5576;50.008;10.596;2023-04-03T00:20:35;3.03;;;2.10;;
11046;SDS011;5576;50.008;10.596;2023-04-03T00:23:01;3.33;;;2.35;;
11046;SDS011;5576;50.008;10.596;2023-04-03T00:25:27;2.70;;;2.20;;
11046;SDS011;5576;50.008;10.596;2023-04-03T00:27:53;3.15;;;2.10;;
11046;SDS011;5576;50.008;10.596;2023-04-03T00:30:20;4.10;;;2.20;;
11046;SDS011;5576;50.008;10.596;2023-04-03T00:32:47;3.30;;;2.20;;
11046;SDS011;5576;50.008;10.596;2023-04-03T00:35:14;5.18;;;3.10;;
11046;SDS011;5576;50.008;10.596;2023-04-03T00:37:41;4.10;;;3.37;;
11046;SDS011;5576;50.008;10.596;2023-04-03T00:40:08;4.00;;;2.83;;
11046;SDS011;5576;50.008;10.596;2023-04-03T00:42:36;3.20;;;2.38;;
11046;SDS011;5576;50.008;10.596;2023-04-03T00:47:30;2.47;;;2.03;;
11046;SDS011;5576;50.008;10.596;2023-04-03T00:49:57;2.08;;;1.80;;
11046;SDS011;5576;50.008;10.596;2023-04-03T00:52:26;3.08;;;2.17;;
11046;SDS011;5576;50.008;10.596;2023-04-03T00:54:56;3.90;;;2.00;;
11046;SDS011;5576;50.008;10.596;2023-04-03T00:57:24;2.45;;;1.88;;
11046;SDS011;5576;50.008;10.596;2023-04-03T00:59:52;2.50;;;2.00;;
11046;SDS011;5576;50.008;10.596;2023-04-03T01:02:23;3.83;;;2.25;;
11046;SDS011;5576;50.008;10.596;2023-04-03T01:04:50;3.92;;;2.80;;
11046;SDS011;5576;50.008;10.596;2023-04-03T01:07:17;3.08;;;2.45;;
11046;SDS011;5576;50.008;10.596;2023-04-03T01:09:46;3.75;;;2.63;;
11046;SDS011;5576;50.008;10.596;2023-04-03T01:14:49;2.35;;;2.05;;
11046;SDS011;5576;50.008;10.596;2023-04-03T01:17:34;3.05;;;2.17;;
11046;SDS011;5576;50.008;10.596;2023-04-03T01:25:36;4.32;;;3.28;;
11046;SDS011;5576;50.008;10.596;2023-04-03T01:28:10;3.15;;;2.33;;
11046;SDS011;5576;50.008;10.596;2023-04-03T01:33:45;3.88;;;3.05;;
11046;SDS011;5576;50.008;10.596;2023-04-03T01:36:16;3.72;;;2.22;;
11046;SDS011;5576;50.008;10.596;2023-04-03T01:38:46;3.10;;;2.00;;
11046;SDS011;5576;50.008;10.596;2023-04-03T01:41:12;2.70;;;1.95;;
11046;SDS011;5576;50.008;10.596;2023-04-03T01:43:38;2.00;;;1.80;;
11046;SDS011;5576;50.008;10.596;2023-04-03T01:46:05;3.58;;;2.13;;
11046;SDS011;5576;50.008;10.596;2023-04-03T01:48:31;3.67;;;2.13;;
11046;SDS011;5576;50.008;10.596;2023-04-03T01:50:57;2.63;;;1.90;;
11046;SDS011;5576;50.008;10.596;2023-04-03T01:53:23;3.27;;;1.90;;
11046;SDS011;5576;50.008;10.596;2023-04-03T01:55:49;3.22;;;2.10;;
11046;SDS011;5576;50.008;10.596;2023-04-03T01:58:15;2.38;;;2.17;;
11046;SDS011;5576;50.008;10.596;2023-04-03T02:00:41;2.60;;;2.10;;
11046;SDS011;5576;50.008;10.596;2023-04-03T02:03:07;3.10;;;2.22;;
11046;SDS011;5576;50.008;10.596;2023-04-03T02:05:33;4.00;;;3.60;;
11046;SDS011;5576;50.008;10.596;2023-04-03T02:07:58;5.20;;;4.57;;
11046;SDS011;5576;50.008;10.596;2023-04-03T02:10:25;4.93;;;4.20;;
11046;SDS011;5576;50.008;10.596;2023-04-03T02:12:51;19.77;;;15.23;;
11046;SDS011;5576;50.008;10.596;2023-04-03T02:15:18;27.93;;;22.07;;
11046;SDS011;5576;50.008;10.596;2023-04-03T02:17:44;26.93;;;21.83;;
11046;SDS011;5576;50.008;10.596;2023-04-03T02:20:10;28.90;;;24.13;;
11046;SDS011;5576;50.008;10.596;2023-04-03T02:22:36;31.90;;;27.02;;
11046;SDS011;5576;50.008;10.596;2023-04-03T02:25:01;28.65;;;25.58;;
11046;SDS011;5576;50.008;10.596;2023-04-03T02:27:27;10.00;;;8.30;;
11046;SDS011;5576;50.008;10.596;2023-04-03T02:29:53;18.80;;;16.60;;
11046;SDS011;5576;50.008;10.596;2023-04-03T02:32:19;25.77;;;21.65;;
11046;SDS011;5576;50.008;10.596;2023-04-03T02:34:45;15.90;;;13.10;;
11046;SDS011;5576;50.008;10.596;2023-04-03T02:37:12;10.70;;;9.20;;
11046;SDS011;5576;50.008;10.596;2023-04-03T02:39:38;9.77;;;8.60;;
11046;SDS011;5576;50.008;10.596;2023-04-03T02:42:04;8.57;;;7.68;;
11046;SDS011;5576;50.008;10.596;2023-04-03T02:44:30;5.87;;;4.60;;
11046;SDS011;5576;50.008;10.596;2023-04-03T02:46:56;4.65;;;4.10;;
11046;SDS011;5576;50.008;10.596;2023-04-03T02:49:22;5.03;;;3.58;;
11046;SDS011;5576;50.008;10.596;2023-04-03T02:51:48;5.75;;;3.72;;
11046;SDS011;5576;50.008;10.596;2023-04-03T02:54:14;5.17;;;3.53;;
11046;SDS011;5576;50.008;10.596;2023-04-03T02:56:44;4.83;;;3.00;;
11046;SDS011;5576;50.008;10.596;2023-04-03T02:59:10;5.18;;;2.80;;
11046;SDS011;5576;50.008;10.596;2023-04-03T03:01:38;4.45;;;3.00;;
11046;SDS011;5576;50.008;10.596;2023-04-03T03:04:04;4.28;;;2.80;;
11046;SDS011;5576;50.008;10.596;2023-04-03T03:06:29;4.53;;;2.60;;
11046;SDS011;5576;50.008;10.596;2023-04-03T03:08:55;4.93;;;3.40;;
11046;SDS011;5576;50.008;10.596;2023-04-03T03:11:21;4.93;;;3.42;;
11046;SDS011;5576;50.008;10.596;2023-04-03T03:13:47;4.40;;;2.75;;
11046;SDS011;5576;50.008;10.596;2023-04-03T03:16:13;5.03;;;2.97;;
11046;SDS011;5576;50.008;10.596;2023-04-03T03:18:39;3.83;;;2.53;;
11046;SDS011;5576;50.008;10.596;2023-04-03T03:21:04;4.50;;;2.75;;
11046;SDS011;5576;50.008;10.596;2023-04-03T03:23:31;5.07;;;3.10;;
11046;SDS011;5576;50.008;10.596;2023-04-03T03:25:57;5.05;;;2.67;;
11046;SDS011;5576;50.008;10.596;2023-04-03T03:28:25;4.10;;;3.08;;
11046;SDS011;5576;50.008;10.596;2023-04-03T03:30:51;5.43;;;2.83;;
11046;SDS011;5576;50.008;10.596;2023-04-03T03:33:18;4.85;;;3.00;;
11046;SDS011;5576;50.008;10.596;2023-04-03T03:35:44;4.83;;;2.80;;
11046;SDS011;5576;50.008;10.596;2023-04-03T03:38:10;4.33;;;2.80;;
11046;SDS011;5576;50.008;10.596;2023-04-03T03:40:37;5.28;;;3.20;;
11046;SDS011;5576;50.008;10.596;2023-04-03T03:43:03;5.15;;;3.20;;
11046;SDS011;5576;50.008;10.596;2023-04-03T03:45:29;5.50;;;3.55;;
11046;SDS011;5576;50.008;10.596;2023-04-03T03:47:56;4.85;;;3.30;;
11046;SDS011;5576;50.008;10.596;2023-04-03T03:50:22;6.25;;;3.58;;
11046;SDS011;5576;50.008;10.596;2023-04-03T03:52:48;4.80;;;2.80;;
11046;SDS011;5576;50.008;10.596;2023-04-03T03:55:14;4.93;;;2.53;;
11046;SDS011;5576;50.008;10.596;2023-04-03T03:57:40;5.82;;;3.42;;
11046;SDS011;5576;50.008;10.596;2023-04-03T04:00:06;5.95;;;3.60;;
11046;SDS011;5576;50.008;10.596;2023-04-03T04:02:41;5.13;;;2.90;;
11046;SDS011;5576;50.008;10.596;2023-04-03T04:05:11;4.03;;;3.00;;
11046;SDS011;5576;50.008;10.596;2023-04-03T04:07:37;4.55;;;3.08;;
11046;SDS011;5576;50.008;10.596;2023-04-03T04:10:03;4.93;;;2.90;;
11046;SDS011;5576;50.008;10.596;2023-04-03T04:12:30;4.83;;;2.80;;
11046;SDS011;5576;50.008;10.596;2023-04-03T04:14:56;4.82;;;2.80;;
11046;SDS011;5576;50.008;10.596;2023-04-03T04:17:22;6.88;;;3.80;;
11046;SDS011;5576;50.008;10.596;2023-04-03T04:19:49;4.22;;;2.75;;
11046;SDS011;5576;50.008;10.596;2023-04-03T04:22:14;4.63;;;2.55;;
11046;SDS011;5576;50.008;10.596;2023-04-03T04:24:41;3.42;;;2.20;;
11046;SDS011;5576;50.008;10.596;2023-04-03T04:27:08;4.32;;;2.58;;
11046;SDS011;5576;50.008;10.596;2023-04-03T04:29:34;3.50;;;2.30;;
11046;SDS011;5576;50.008;10.596;2023-04-03T04:32:04;4.55;;;3.30;;
11046;SDS011;5576;50.008;10.596;2023-04-03T04:34:30;4.57;;;2.40;;
11046;SDS011;5576;50.008;10.596;2023-04-03T04:36:56;4.77;;;2.60;;
11046;SDS011;5576;50.008;10.596;2023-04-03T04:39:22;4.75;;;2.63;;
11046;SDS011;5576;50.008;10.596;2023-04-03T04:41:49;4.28;;;2.30;;
11046;SDS011;5576;50.008;10.596;2023-04-03T04:44:15;4.55;;;2.50;;
11046;SDS011;5576;50.008;10.596;2023-04-03T04:46:41;3.85;;;2.63;;
11046;SDS011;5576;50.008;10.596;2023-04-03T04:49:08;4.25;;;2.55;;
11046;SDS011;5576;50.008;10.596;2023-04-03T04:51:34;4.00;;;2.40;;
11046;SDS011;5576;50.008;10.596;2023-04-03T04:54:00;3.97;;;2.28;;
11046;SDS011;5576;50.008;10.596;2023-04-03T04:56:25;3.85;;;2.42;;
11046;SDS011;5576;50.008;10.596;2023-04-03T04:58:53;3.83;;;2.55;;
11046;SDS011;5576;50.008;10.596;2023-04-03T05:01:20;4.35;;;2.80;;
11046;SDS011;5576;50.008;10.596;2023-04-03T05:03:53;4.18;;;2.65;;
11046;SDS011;5576;50.008;10.596;2023-04-03T05:06:20;3.80;;;2.72;;
11046;SDS011;5576;50.008;10.596;2023-04-03T05:08:46;3.72;;;2.83;;
11046;SDS011;5576;50.008;10.596;2023-04-03T05:11:12;4.47;;;2.90;;
11046;SDS011;5576;50.008;10.596;2023-04-03T05:13:40;3.50;;;2.70;;
11046;SDS011;5576;50.008;10.596;2023-04-03T05:16:06;4.37;;;2.80;;
11046;SDS011;5576;50.008;10.596;2023-04-03T05:18:33;3.80;;;2.78;;
11046;SDS011;5576;50.008;10.596;2023-04-03T05:21:04;4.87;;;2.77;;
11046;SDS011;5576;50.008;10.596;2023-04-03T05:23:30;4.75;;;2.72;;
11046;SDS011;5576;50.008;10.596;2023-04-03T05:25:57;4.72;;;3.03;;
11046;SDS011;5576;50.008;10.596;2023-04-03T05:28:24;5.07;;;2.60;;
11046;SDS011;5576;50.008;10.596;2023-04-03T05:30:54;4.57;;;2.70;;
11046;SDS011;5576;50.008;10.596;2023-04-03T05:33:21;3.58;;;2.58;;
11046;SDS011;5576;50.008;10.596;2023-04-03T05:35:51;4.68;;;2.90;;
11046;SDS011;5576;50.008;10.596;2023-04-03T05:38:22;4.18;;;2.78;;
11046;SDS011;5576;50.008;10.596;2023-04-03T05:40:49;3.92;;;2.50;;
11046;SDS011;5576;50.008;10.596;2023-04-03T05:43:15;4.18;;;2.90;;
11046;SDS011;5576;50.008;10.596;2023-04-03T05:45:42;4.75;;;2.80;;
11046;SDS011;5576;50.008;10.596;2023-04-03T05:48:08;4.22;;;2.72;;
11046;SDS011;5576;50.008;10.596;2023-04-03T05:50:35;3.58;;;2.70;;
11046;SDS011;5576;50.008;10.596;2023-04-03T05:53:01;4.20;;;2.80;;
11046;SDS011;5576;50.008;10.596;2023-04-03T05:55:30;4.88;;;2.67;;
11046;SDS011;5576;50.008;10.596;2023-04-03T05:57:56;3.72;;;2.55;;
11046;SDS011;5576;50.008;10.596;2023-04-03T06:00:22;4.00;;;2.60;;
11046;SDS011;5576;50.008;10.596;2023-04-03T06:02:58;3.90;;;2.38;;
11046;SDS011;5576;50.008;10.596;2023-04-03T06:05:24;4.23;;;2.70;;
11046;SDS011;5576;50.008;10.596;2023-04-03T06:07:50;5.53;;;2.75;;
11046;SDS011;5576;50.008;10.596;2023-04-03T06:10:16;5.80;;;3.17;;
11046;SDS011;5576;50.008;10.596;2023-04-03T06:12:43;4.78;;;2.55;;
11046;SDS011;5576;50.008;10.596;2023-04-03T06:15:09;4.90;;;3.03;;
11046;SDS011;5576;50.008;10.596;2023-04-03T06:17:39;4.50;;;3.07;;
11046;SDS011;5576;50.008;10.596;2023-04-03T06:20:05;5.00;;;3.00;;
11046;SDS011;5576;50.008;10.596;2023-04-03T06:22:33;4.75;;;2.90;;
11046;SDS011;5576;50.008;10.596;2023-04-03T06:25:00;4.80;;;3.00;;
11046;SDS011;5576;50.008;10.596;2023-04-03T06:27:26;4.07;;;2.70;;
11046;SDS011;5576;50.008;10.596;2023-04-03T06:29:52;4.75;;;2.90;;
11046;SDS011;5576;50.008;10.596;2023-04-03T06:32:18;3.92;;;2.80;;
11046;SDS011;5576;50.008;10.596;2023-04-03T06:34:44;5.13;;;2.83;;
11046;SDS011;5576;50.008;10.596;2023-04-03T06:37:14;5.13;;;2.72;;
11046;SDS011;5576;50.008;10.596;2023-04-03T06:39:42;4.03;;;2.70;;
11046;SDS011;5576;50.008;10.596;2023-04-03T06:42:08;4.65;;;2.92;;
11046;SDS011;5576;50.008;10.596;2023-04-03T06:44:43;4.72;;;2.80;;
11046;SDS011;5576;50.008;10.596;2023-04-03T06:47:10;4.47;;;2.67;;
11046;SDS011;5576;50.008;10.596;2023-04-03T06:49:38;5.50;;;3.13;;
11046;SDS011;5576;50.008;10.596;2023-04-03T06:52:04;5.95;;;3.17;;
11046;SDS011;5576;50.008;10.596;2023-04-03T06:54:30;5.00;;;2.87;;
11046;SDS011;5576;50.008;10.596;2023-04-03T06:56:57;5.25;;;2.80;;
11046;SDS011;5576;50.008;10.596;2023-04-03T06:59:23;4.18;;;2.75;;
11046;SDS011;5576;50.008;10.596;2023-04-03T07:01:49;4.30;;;2.70;;
11046;SDS011;5576;50.008;10.596;2023-04-03T07:04:16;3.72;;;2.90;;
11046;SDS011;5576;50.008;10.596;2023-04-03T07:06:42;4.00;;;2.67;;
11046;SDS011;5576;50.008;10.596;2023-04-03T07:09:08;4.43;;;2.60;;
11046;SDS011;5576;50.008;10.596;2023-04-03T07:11:35;4.00;;;2.73;;
11046;SDS011;5576;50.008;10.596;2023-04-03T07:14:01;5.07;;;2.60;;
11046;SDS011;5576;50.008;10.596;2023-04-03T07:16:27;4.93;;;2.70;;
11046;SDS011;5576;50.008;10.596;2023-04-03T07:18:55;5.35;;;3.30;;
11046;SDS011;5576;50.008;10.596;2023-04-03T07:21:22;5.00;;;3.00;;
11046;SDS011;5576;50.008;10.596;2023-04-03T07:23:48;5.20;;;2.77;;
11046;SDS011;5576;50.008;10.596;2023-04-03T07:26:14;3.83;;;3.00;;
11046;SDS011;5576;50.008;10.596;2023-04-03T07:28:40;4.10;;;2.60;;
11046;SDS011;5576;50.008;10.596;2023-04-03T07:31:07;4.18;;;2.70;;
11046;SDS011;5576;50.008;10.596;2023-04-03T07:33:36;4.47;;;3.03;;
11046;SDS011;5576;50.008;10.596;2023-04-03T07:36:03;4.65;;;3.20;;
11046;SDS011;5576;50.008;10.596;2023-04-03T07:38:32;4.07;;;2.95;;
11046;SDS011;5576;50.008;10.596;2023-04-03T07:40:59;4.30;;;2.80;;
11046;SDS011;5576;50.008;10.596;2023-04-03T07:43:25;5.20;;;2.80;;
11046;SDS011;5576;50.008;10.596;2023-04-03T07:45:51;4.20;;;2.88;;
11046;SDS011;5576;50.008;10.596;2023-04-03T07:48:19;4.63;;;3.00;;
11046;SDS011;5576;50.008;10.596;2023-04-03T07:50:48;5.97;;;3.20;;
11046;SDS011;5576;50.008;10.596;2023-04-03T07:53:14;5.30;;;3.10;;
11046;SDS011;5576;50.008;10.596;2023-04-03T07:55:40;4.75;;;3.10;;
11046;SDS011;5576;50.008;10.596;2023-04-03T07:58:08;3.78;;;2.50;;
11046;SDS011;5576;50.008;10.596;2023-04-03T08:00:36;4.03;;;2.80;;
11046;SDS011;5576;50.008;10.596;2023-04-03T08:03:02;4.33;;;2.70;;
11046;SDS011;5576;50.008;10.596;2023-04-03T08:05:27;3.83;;;2.78;;
11046;SDS011;5576;50.008;10.596;2023-04-03T08:07:53;4.43;;;2.95;;
11046;SDS011;5576;50.008;10.596;2023-04-03T08:10:19;4.03;;;2.60;;
11046;SDS011;5576;50.008;10.596;2023-04-03T08:12:46;4.77;;;2.80;;
11046;SDS011;5576;50.008;10.596;2023-04-03T08:15:12;4.72;;;2.90;;
11046;SDS011;5576;50.008;10.596;2023-04-03T08:17:38;4.13;;;3.28;;
11046;SDS011;5576;50.008;10.596;2023-04-03T08:20:04;5.15;;;2.60;;
11046;SDS011;5576;50.008;10.596;2023-04-03T08:22:32;5.65;;;2.78;;
11046;SDS011;5576;50.008;10.596;2023-04-03T08:24:58;3.57;;;2.73;;
11046;SDS011;5576;50.008;10.596;2023-04-03T08:27:24;3.60;;;2.40;;
11046;SDS011;5576;50.008;10.596;2023-04-03T08:29:51;3.47;;;2.40;;
11046;SDS011;5576;50.008;10.596;2023-04-03T08:32:17;4.72;;;2.60;;
11046;SDS011;5576;50.008;10.596;2023-04-03T08:34:43;3.47;;;2.33;;
11046;SDS011;5576;50.008;10.596;2023-04-03T08:37:09;3.20;;;2.27;;
11046;SDS011;5576;50.008;10.596;2023-04-03T08:39:35;3.33;;;2.35;;
11046;SDS011;5576;50.008;10.596;2023-04-03T08:42:02;3.03;;;2.17;;
11046;SDS011;5576;50.008;10.596;2023-04-03T08:47:47;4.40;;;2.40;;
11046;SDS011;5576;50.008;10.596;2023-04-03T08:50:34;3.63;;;2.33;;
11046;SDS011;5576;50.008;10.596;2023-04-03T08:53:05;2.73;;;2.10;;
11046;SDS011;5576;50.008;10.596;2023-04-03T08:55:45;3.83;;;2.30;;
11046;SDS011;5576;50.008;10.596;2023-04-03T08:58:29;4.05;;;2.30;;
11046;SDS011;5576;50.008;10.596;2023-04-03T09:00:59;4.40;;;2.30;;
11046;SDS011;5576;50.008;10.596;2023-04-03T09:03:30;5.13;;;2.60;;
11046;SDS011;5576;50.008;10.596;2023-04-03T09:14:07;3.60;;;2.28;;
11046;SDS011;5576;50.008;10.596;2023-04-03T09:22:28;2.80;;;2.05;;
11046;SDS011;5576;50.008;10.596;2023-04-03T09:25:04;3.05;;;1.92;;
11046;SDS011;5576;50.008;10.596;2023-04-03T09:27:35;2.72;;;2.00;;
11046;SDS011;5576;50.008;10.596;2023-04-03T09:30:00;3.70;;;2.10;;
11046;SDS011;5576;50.008;10.596;2023-04-03T09:32:28;2.50;;;1.80;;
11046;SDS011;5576;50.008;10.596;2023-04-03T09:35:04;2.63;;;1.80;;
11046;SDS011;5576;50.008;10.596;2023-04-03T09:37:40;7.70;;;2.10;;
11046;SDS011;5576;50.008;10.596;2023-04-03T09:40:27;3.30;;;1.58;;
11046;SDS011;5576;50.008;10.596;2023-04-03T09:42:54;4.07;;;1.83;;
11046;SDS011;5576;50.008;10.596;2023-04-03T09:45:25;6.40;;;2.20;;
11046;SDS011;5576;50.008;10.596;2023-04-03T09:48:12;5.13;;;1.75;;
11046;SDS011;5576;50.008;10.596;2023-04-03T09:53:33;4.38;;;1.80;;
11046;SDS011;5576;50.008;10.596;2023-04-03T09:56:01;5.28;;;1.67;;
11046;SDS011;5576;50.008;10.596;2023-04-03T09:58:44;2.83;;;1.60;;
11046;SDS011;5576;50.008;10.596;2023-04-03T10:04:03;2.63;;;1.45;;
11046;SDS011;5576;50.008;10.596;2023-04-03T10:06:35;3.10;;;1.80;;
11046;SDS011;5576;50.008;10.596;2023-04-03T10:09:23;1.92;;;1.40;;
11046;SDS011;5576;50.008;10.596;2023-04-03T10:11:59;2.17;;;1.38;;
11046;SDS011;5576;50.008;10.596;2023-04-03T10:14:30;2.78;;;1.50;;
11046;SDS011;5576;50.008;10.596;2023-04-03T10:17:01;2.47;;;1.50;;
11046;SDS011;5576;50.008;10.596;2023-04-03T10:19:32;2.70;;;1.60;;
11046;SDS011;5576;50.008;10.596;2023-04-03T10:22:17;1.88;;;1.30;;
11046;SDS011;5576;50.008;10.596;2023-04-03T10:25:00;1.90;;;1.25;;
11046;SDS011;5576;50.008;10.596;2023-04-03T10:32:58;1.50;;;1.20;;
11046;SDS011;5576;50.008;10.596;2023-04-03T10:38:14;2.15;;;1.30;;
11046;SDS011;5576;50.008;10.596;2023-04-03T10:46:11;1.90;;;1.40;;
11046;SDS011;5576;50.008;10.596;2023-04-03T10:48:46;2.50;;;1.20;;
11046;SDS011;5576;50.008;10.596;2023-04-03T10:56:55;1.90;;;1.40;;
11046;SDS011;5576;50.008;10.596;2023-04-03T10:59:28;2.22;;;1.30;;
11046;SDS011;5576;50.008;10.596;2023-04-03T11:02:16;2.67;;;1.48;;
11046;SDS011;5576;50.008;10.596;2023-04-03T11:04:51;1.77;;;1.30;;
11046;SDS011;5576;50.008;10.596;2023-04-03T11:07:24;2.47;;;1.30;;
11046;SDS011;5576;50.008;10.596;2023-04-03T11:09:55;2.30;;;1.35;;
11046;SDS011;5576;50.008;10.596;2023-04-03T11:12:27;2.25;;;1.38;;
11046;SDS011;5576;50.008;10.596;2023-04-03T11:15:01;2.33;;;1.27;;
11046;SDS011;5576;50.008;10.596;2023-04-03T11:17:33;1.63;;;1.30;;
11046;SDS011;5576;50.008;10.596;2023-04-03T11:22:54;2.47;;;1.40;;
11046;SDS011;5576;50.008;10.596;2023-04-03T11:25:25;3.17;;;1.47;;
11046;SDS011;5576;50.008;10.596;2023-04-03T11:27:56;3.10;;;1.38;;
11046;SDS011;5576;50.008;10.596;2023-04-03T11:35:44;2.05;;;1.20;;
11046;SDS011;5576;50.008;10.596;2023-04-03T11:38:15;1.33;;;1.10;;
11046;SDS011;5576;50.008;10.596;2023-04-03T11:40:47;1.90;;;1.15;;
11046;SDS011;5576;50.008;10.596;2023-04-03T11:45:53;1.90;;;1.05;;
11046;SDS011;5576;50.008;10.596;2023-04-03T11:50:58;2.43;;;1.17;;
11046;SDS011;5576;50.008;10.596;2023-04-03T11:53:40;2.25;;;1.10;;
11046;SDS011;5576;50.008;10.596;2023-04-03T12:01:55;2.30;;;1.30;;
11046;SDS011;5576;50.008;10.596;2023-04-03T12:04:24;9.48;;;7.70;;
11046;SDS011;5576;50.008;10.596;2023-04-03T12:06:53;1.92;;;1.10;;
11046;SDS011;5576;50.008;10.596;2023-04-03T12:09:27;2.13;;;1.23;;
11046;SDS011;5576;50.008;10.596;2023-04-03T12:11:57;1.88;;;1.15;;
11046;SDS011;5576;50.008;10.596;2023-04-03T12:14:26;1.92;;;1.10;;
11046;SDS011;5576;50.008;10.596;2023-04-03T12:16:54;1.53;;;1.20;;
11046;SDS011;5576;50.008;10.596;2023-04-03T12:19:39;1.40;;;1.05;;
11046;SDS011;5576;50.008;10.596;2023-04-03T12:22:09;2.25;;;1.30;;
11046;SDS011;5576;50.008;10.596;2023-04-03T12:24:39;2.42;;;1.30;;
11046;SDS011;5576;50.008;10.596;2023-04-03T12:29:58;2.20;;;1.30;;
11046;SDS011;5576;50.008;10.596;2023-04-03T12:41:22;1.95;;;1.10;;
11046;SDS011;5576;50.008;10.596;2023-04-03T12:47:00;2.08;;;1.10;;
11046;SDS011;5576;50.008;10.596;2023-04-03T12:49:42;3.67;;;1.40;;
11046;SDS011;5576;50.008;10.596;2023-04-03T12:55:01;5.60;;;1.60;;
11046;SDS011;5576;50.008;10.596;2023-04-03T12:57:29;2.70;;;1.10;;
11046;SDS011;5576;50.008;10.596;2023-04-03T12:59:57;1.77;;;1.10;;
11046;SDS011;5576;50.008;10.596;2023-04-03T13:02:27;2.03;;;1.20;;
11046;SDS011;5576;50.008;10.596;2023-04-03T13:04:56;2.08;;;1.20;;
11046;SDS011;5576;50.008;10.596;2023-04-03T13:07:27;1.65;;;1.10;;
11046;SDS011;5576;50.008;10.596;2023-04-03T13:10:03;2.90;;;1.20;;
11046;SDS011;5576;50.008;10.596;2023-04-03T13:12:55;4.40;;;1.23;;
11046;SDS011;5576;50.008;10.596;2023-04-03T13:15:28;1.63;;;1.08;;
11046;SDS011;5576;50.008;10.596;2023-04-03T13:17:56;2.00;;;1.10;;
11046;SDS011;5576;50.008;10.596;2023-04-03T13:20:24;3.05;;;1.02;;
11046;SDS011;5576;50.008;10.596;2023-04-03T13:23:01;3.80;;;1.10;;
11046;SDS011;5576;50.008;10.596;2023-04-03T13:25:32;1.90;;;1.00;;
11046;SDS011;5576;50.008;10.596;2023-04-03T13:28:00;1.77;;;1.00;;
11046;SDS011;5576;50.008;10.596;2023-04-03T13:30:28;2.28;;;1.27;;
11046;SDS011;5576;50.008;10.596;2023-04-03T13:32:58;4.55;;;1.10;;
11046;SDS011;5576;50.008;10.596;2023-04-03T13:35:30;2.40;;;1.10;;
11046;SDS011;5576;50.008;10.596;2023-04-03T13:38:01;2.15;;;1.10;;
11046;SDS011;5576;50.008;10.596;2023-04-03T13:40:31;2.28;;;1.20;;
11046;SDS011;5576;50.008;10.596;2023-04-03T13:43:06;1.98;;;1.20;;
11046;SDS011;5576;50.008;10.596;2023-04-03T13:48:39;3.72;;;1.33;;
11046;SDS011;5576;50.008;10.596;2023-04-03T13:53:43;2.53;;;1.10;;
11046;SDS011;5576;50.008;10.596;2023-04-03T13:56:19;2.70;;;1.10;;
11046;SDS011;5576;50.008;10.596;2023-04-03T13:58:55;2.58;;;1.20;;
11046;SDS011;5576;50.008;10.596;2023-04-03T14:01:24;1.90;;;1.17;;
11046;SDS011;5576;50.008;10.596;2023-04-03T14:03:53;2.22;;;1.10;;
11046;SDS011;5576;50.008;10.596;2023-04-03T14:06:22;1.90;;;1.30;;
11046;SDS011;5576;50.008;10.596;2023-04-03T14:08:49;1.70;;;1.10;;
11046;SDS011;5576;50.008;10.596;2023-04-03T14:11:16;2.20;;;1.40;;
11046;SDS011;5576;50.008;10.596;2023-04-03T14:13:44;1.50;;;1.00;;
11046;SDS011;5576;50.008;10.596;2023-04-03T14:16:15;1.30;;;1.00;;
11046;SDS011;5576;50.008;10.596;2023-04-03T14:18:43;2.22;;;1.50;;
11046;SDS011;5576;50.008;10.596;2023-04-03T14:21:11;1.83;;;1.13;;
11046;SDS011;5576;50.008;10.596;2023-04-03T14:23:38;2.00;;;1.20;;
11046;SDS011;5576;50.008;10.596;2023-04-03T14:26:08;2.20;;;1.10;;
11046;SDS011;5576;50.008;10.596;2023-04-03T14:28:37;2.38;;;1.08;;
11046;SDS011;5576;50.008;10.596;2023-04-03T14:31:05;1.77;;;1.07;;
11046;SDS011;5576;50.008;10.596;2023-04-03T14:33:32;1.77;;;1.00;;
11046;SDS011;5576;50.008;10.596;2023-04-03T14:36:00;2.05;;;1.00;;
11046;SDS011;5576;50.008;10.596;2023-04-03T14:38:29;1.80;;;1.10;;
11046;SDS011;5576;50.008;10.596;2023-04-03T14:40:56;2.17;;;1.00;;
11046;SDS011;5576;50.008;10.596;2023-04-03T14:43:23;1.42;;;1.00;;
11046;SDS011;5576;50.008;10.596;2023-04-03T14:45:49;1.90;;;1.10;;
11046;SDS011;5576;50.008;10.596;2023-04-03T14:48:18;2.00;;;1.08;;
11046;SDS011;5576;50.008;10.596;2023-04-03T14:50:47;2.30;;;1.48;;
11046;SDS011;5576;50.008;10.596;2023-04-03T14:53:13;10.90;;;9.55;;
11046;SDS011;5576;50.008;10.596;2023-04-03T14:55:43;4.50;;;2.85;;
11046;SDS011;5576;50.008;10.596;2023-04-03T14:58:12;3.35;;;1.20;;
11046;SDS011;5576;50.008;10.596;2023-04-03T15:00:40;2.77;;;1.13;;
11046;SDS011;5576;50.008;10.596;2023-04-03T15:03:05;2.58;;;1.40;;
11046;SDS011;5576;50.008;10.596;2023-04-03T15:05:31;2.83;;;1.33;;
11046;SDS011;5576;50.008;10.596;2023-04-03T15:07:57;3.20;;;1.50;;
11046;SDS011;5576;50.008;10.596;2023-04-03T15:10:28;2.40;;;1.20;;
11046;SDS011;5576;50.008;10.596;2023-04-03T15:12:55;2.08;;;1.20;;
11046;SDS011;5576;50.008;10.596;2023-04-03T15:15:22;2.20;;;1.20;;
11046;SDS011;5576;50.008;10.596;2023-04-03T15:17:50;3.05;;;1.50;;
11046;SDS011;5576;50.008;10.596;2023-04-03T15:20:20;3.05;;;1.48;;
11046;SDS011;5576;50.008;10.596;2023-04-03T15:22:48;2.30;;;1.20;;
11046;SDS011;5576;50.008;10.596;2023-04-03T15:25:14;3.28;;;1.40;;
11046;SDS011;5576;50.008;10.596;2023-04-03T15:27:40;2.47;;;1.17;;
11046;SDS011;5576;50.008;10.596;2023-04-03T15:30:11;2.30;;;1.27;;
11046;SDS011;5576;50.008;10.596;2023-04-03T15:32:39;2.22;;;1.30;;
11046;SDS011;5576;50.008;10.596;2023-04-03T15:35:05;3.05;;;1.35;;
11046;SDS011;5576;50.008;10.596;2023-04-03T15:37:31;2.17;;;1.15;;
11046;SDS011;5576;50.008;10.596;2023-04-03T15:39:57;2.70;;;1.10;;
11046;SDS011;5576;50.008;10.596;2023-04-03T15:42:23;2.45;;;1.35;;
11046;SDS011;5576;50.008;10.596;2023-04-03T15:44:49;3.97;;;2.63;;
11046;SDS011;5576;50.008;10.596;2023-04-03T15:47:14;3.25;;;2.45;;
11046;SDS011;5576;50.008;10.596;2023-04-03T15:49:40;2.50;;;1.63;;
11046;SDS011;5576;50.008;10.596;2023-04-03T15:52:06;2.65;;;1.40;;
11046;SDS011;5576;50.008;10.596;2023-04-03T15:54:32;2.05;;;1.30;;
11046;SDS011;5576;50.008;10.596;2023-04-03T15:56:58;1.67;;;1.00;;
11046;SDS011;5576;50.008;10.596;2023-04-03T15:59:23;2.25;;;1.10;;
11046;SDS011;5576;50.008;10.596;2023-04-03T16:01:49;2.70;;;1.27;;
11046;SDS011;5576;50.008;10.596;2023-04-03T16:04:16;1.95;;;1.20;;
11046;SDS011;5576;50.008;10.596;2023-04-03T16:06:42;2.75;;;1.60;;
11046;SDS011;5576;50.008;10.596;2023-04-03T16:09:08;2.65;;;1.40;;
11046;SDS011;5576;50.008;10.596;2023-04-03T16:11:34;1.70;;;1.20;;
11046;SDS011;5576;50.008;10.596;2023-04-03T16:14:02;1.50;;;1.15;;
11046;SDS011;5576;50.008;10.596;2023-04-03T16:16:28;1.92;;;1.50;;
11046;SDS011;5576;50.008;10.596;2023-04-03T16:18:55;2.00;;;1.40;;
11046;SDS011;5576;50.008;10.596;2023-04-03T16:21:21;2.30;;;1.30;;
11046;SDS011;5576;50.008;10.596;2023-04-03T16:23:48;2.90;;;1.50;;
11046;SDS011;5576;50.008;10.596;2023-04-03T16:26:14;2.85;;;1.30;;
11046;SDS011;5576;50.008;10.596;2023-04-03T16:28:40;2.17;;;1.50;;
11046;SDS011;5576;50.008;10.596;2023-04-03T16:31:06;3.53;;;1.70;;
11046;SDS011;5576;50.008;10.596;2023-04-03T16:33:33;2.20;;;1.60;;